sensor_id;sensor_type;location;lat;lon;timestamp;pressure;altitude;pressure_sealevel;temperature;humidity
21290;BME280;10804;48.988;2.408;2023-06-24T00:02:24;101814.53;;;24.15;56.15
21290;BME280;10804;48.988;2.408;2023-06-24T00:04:53;101810.28;;;24.12;56.00
21290;BME280;10804;48.988;2.408;2023-06-24T00:07:22;101807.91;;;24.08;56.17
21290;BME280;10804;48.988;2.408;2023-06-24T00:09:52;101805.66;;;24.02;56.36
21290;BME280;10804;48.988;2.408;2023-06-24T00:12:20;101810.41;;;23.97;56.33
21290;BME280;10804;48.988;2.408;2023-06-24T00:14:48;101799.28;;;23.90;56.61
21290;BME280;10804;48.988;2.408;2023-06-24T00:17:15;101803.66;;;23.91;56.51
21290;BME280;10804;48.988;2.408;2023-06-24T00:19:43;101801.97;;;23.90;56.56
21290;BME280;10804;48.988;2.408;2023-06-24T00:22:12;101803.53;;;23.93;56.39
21290;BME280;10804;48.988;2.408;2023-06-24T00:24:39;101807.16;;;23.92;56.31
21290;BME280;10804;48.988;2.408;2023-06-24T00:27:08;101802.41;;;23.83;56.42
21290;BME280;10804;48.988;2.408;2023-06-24T00:29:36;101799.72;;;23.83;56.43
21290;BME280;10804;48.988;2.408;2023-06-24T00:32:04;101798.78;;;23.84;56.51
21290;BME280;10804;48.988;2.408;2023-06-24T00:34:31;101805.16;;;23.81;56.70
21290;BME280;10804;48.988;2.408;2023-06-24T00:36:58;101801.06;;;23.76;56.50
21290;BME280;10804;48.988;2.408;2023-06-24T00:39:28;101800.41;;;23.72;56.51
21290;BME280;10804;48.988;2.408;2023-06-24T00:41:55;101798.59;;;23.73;56.67
21290;BME280;10804;48.988;2.408;2023-06-24T00:44:23;101798.91;;;23.68;56.57
21290;BME280;10804;48.988;2.408;2023-06-24T00:46:51;101799.72;;;23.69;56.57
21290;BME280;10804;48.988;2.408;2023-06-24T00:49:18;101799.84;;;23.67;56.74
21290;BME280;10804;48.988;2.408;2023-06-24T00:51:46;101798.16;;;23.66;56.53
21290;BME280;10804;48.988;2.408;2023-06-24T00:54:16;101797.38;;;23.64;56.83
21290;BME280;10804;48.988;2.408;2023-06-24T00:56:45;101801.94;;;23.62;56.85
21290;BME280;10804;48.988;2.408;2023-06-24T00:59:15;101802.03;;;23.61;56.69
21290;BME280;10804;48.988;2.408;2023-06-24T01:01:44;101800.31;;;23.60;57.03
21290;BME280;10804;48.988;2.408;2023-06-24T01:04:12;101804.97;;;23.56;56.94
21290;BME280;10804;48.988;2.408;2023-06-24T01:06:40;101806.88;;;23.54;57.03
21290;BME280;10804;48.988;2.408;2023-06-24T01:09:09;101801.78;;;23.51;56.90
21290;BME280;10804;48.988;2.408;2023-06-24T01:11:39;101809.94;;;23.48;56.95
21290;BME280;10804;48.988;2.408;2023-06-24T01:14:08;101801.19;;;23.46;56.88
21290;BME280;10804;48.988;2.408;2023-06-24T01:16:42;101800.44;;;23.44;56.70
21290;BME280;10804;48.988;2.408;2023-06-24T01:22:17;101791.28;;;23.34;57.10
21290;BME280;10804;48.988;2.408;2023-06-24T01:24:54;101785.94;;;23.34;56.98
21290;BME280;10804;48.988;2.408;2023-06-24T01:27:37;101782.44;;;23.34;56.82
21290;BME280;10804;48.988;2.408;2023-06-24T01:30:36;101782.53;;;23.32;56.89
21290;BME280;10804;48.988;2.408;2023-06-24T01:33:14;101790.72;;;23.29;57.00
21290;BME280;10804;48.988;2.408;2023-06-24T01:35:43;101776.63;;;23.27;57.20
21290;BME280;10804;48.988;2.408;2023-06-24T01:41:00;101784.81;;;23.24;57.18
21290;BME280;10804;48.988;2.408;2023-06-24T01:43:31;101779.56;;;23.23;57.38
21290;BME280;10804;48.988;2.408;2023-06-24T01:45:59;101781.56;;;23.19;57.48
21290;BME280;10804;48.988;2.408;2023-06-24T01:48:32;101785.19;;;23.18;57.08
21290;BME280;10804;48.988;2.408;2023-06-24T01:51:07;101780.06;;;23.15;57.29
21290;BME280;10804;48.988;2.408;2023-06-24T01:53:38;101779.09;;;23.16;57.19
21290;BME280;10804;48.988;2.408;2023-06-24T01:56:11;101776.78;;;23.10;57.42
21290;BME280;10804;48.988;2.408;2023-06-24T01:58:40;101779.44;;;23.10;57.38
21290;BME280;10804;48.988;2.408;2023-06-24T02:01:08;101776.00;;;23.08;57.25
21290;BME280;10804;48.988;2.408;2023-06-24T02:03:38;101772.59;;;23.06;57.39
21290;BME280;10804;48.988;2.408;2023-06-24T02:06:07;101777.25;;;23.03;57.63
21290;BME280;10804;48.988;2.408;2023-06-24T02:08:38;101768.47;;;23.01;57.40
21290;BME280;10804;48.988;2.408;2023-06-24T02:11:08;101768.59;;;22.99;57.32
21290;BME280;10804;48.988;2.408;2023-06-24T02:13:37;101771.34;;;22.98;57.41
21290;BME280;10804;48.988;2.408;2023-06-24T02:16:13;101780.28;;;22.97;57.15
21290;BME280;10804;48.988;2.408;2023-06-24T02:18:42;101786.56;;;22.96;57.31
21290;BME280;10804;48.988;2.408;2023-06-24T02:21:11;101781.38;;;22.93;57.61
21290;BME280;10804;48.988;2.408;2023-06-24T02:23:39;101788.63;;;22.91;57.28
21290;BME280;10804;48.988;2.408;2023-06-24T02:26:08;101789.66;;;22.88;57.74
21290;BME280;10804;48.988;2.408;2023-06-24T02:28:37;101787.94;;;22.87;57.48
21290;BME280;10804;48.988;2.408;2023-06-24T02:31:05;101791.56;;;22.86;57.71
21290;BME280;10804;48.988;2.408;2023-06-24T02:33:33;101786.31;;;22.85;57.35
21290;BME280;10804;48.988;2.408;2023-06-24T02:36:02;101785.63;;;22.81;57.60
21290;BME280;10804;48.988;2.408;2023-06-24T02:38:29;101791.06;;;22.80;57.46
21290;BME280;10804;48.988;2.408;2023-06-24T02:40:57;101787.53;;;22.79;57.66
21290;BME280;10804;48.988;2.408;2023-06-24T02:43:25;101785.06;;;22.76;57.73
21290;BME280;10804;48.988;2.408;2023-06-24T02:45:53;101783.53;;;22.72;57.52
21290;BME280;10804;48.988;2.408;2023-06-24T02:48:21;101786.09;;;22.74;57.72
21290;BME280;10804;48.988;2.408;2023-06-24T02:50:50;101780.88;;;22.72;57.74
21290;BME280;10804;48.988;2.408;2023-06-24T02:53:19;101779.25;;;22.70;57.62
21290;BME280;10804;48.988;2.408;2023-06-24T02:55:47;101782.19;;;22.65;57.51
21290;BME280;10804;48.988;2.408;2023-06-24T02:58:16;101778.75;;;22.63;57.35
21290;BME280;10804;48.988;2.408;2023-06-24T03:01:01;101784.06;;;22.63;57.63
21290;BME280;10804;48.988;2.408;2023-06-24T03:03:37;101782.38;;;22.62;57.90
21290;BME280;10804;48.988;2.408;2023-06-24T03:06:10;101785.97;;;22.61;57.72
21290;BME280;10804;48.988;2.408;2023-06-24T03:08:41;101785.22;;;22.59;57.42
21290;BME280;10804;48.988;2.408;2023-06-24T03:11:12;101778.28;;;22.57;57.57
21290;BME280;10804;48.988;2.408;2023-06-24T03:13:39;101782.91;;;22.53;57.61
21290;BME280;10804;48.988;2.408;2023-06-24T03:16:22;101780.31;;;22.52;58.07
21290;BME280;10804;48.988;2.408;2023-06-24T03:19:11;101773.31;;;22.51;57.71
21290;BME280;10804;48.988;2.408;2023-06-24T03:21:38;101773.38;;;22.49;57.87
21290;BME280;10804;48.988;2.408;2023-06-24T03:24:17;101775.28;;;22.47;57.73
21290;BME280;10804;48.988;2.408;2023-06-24T03:26:48;101770.16;;;22.44;57.73
21290;BME280;10804;48.988;2.408;2023-06-24T03:29:21;101771.19;;;22.42;57.83
21290;BME280;10804;48.988;2.408;2023-06-24T03:31:56;101770.34;;;22.40;57.75
21290;BME280;10804;48.988;2.408;2023-06-24T03:34:26;101762.38;;;22.40;57.78
21290;BME280;10804;48.988;2.408;2023-06-24T03:36:54;101779.28;;;22.39;57.74
21290;BME280;10804;48.988;2.408;2023-06-24T03:39:22;101777.50;;;22.39;57.70
21290;BME280;10804;48.988;2.408;2023-06-24T03:41:50;101778.59;;;22.35;57.85
21290;BME280;10804;48.988;2.408;2023-06-24T03:44:17;101778.59;;;22.35;57.81
21290;BME280;10804;48.988;2.408;2023-06-24T03:46:46;101777.91;;;22.32;57.75
21290;BME280;10804;48.988;2.408;2023-06-24T03:49:14;101779.91;;;22.28;58.10
21290;BME280;10804;48.988;2.408;2023-06-24T03:51:42;101780.84;;;22.27;57.91
21290;BME280;10804;48.988;2.408;2023-06-24T03:54:10;101785.31;;;22.27;57.83
21290;BME280;10804;48.988;2.408;2023-06-24T03:56:38;101787.19;;;22.25;58.00
21290;BME280;10804;48.988;2.408;2023-06-24T03:59:05;101790.72;;;22.25;57.95
21290;BME280;10804;48.988;2.408;2023-06-24T04:01:33;101793.56;;;22.22;57.91
21290;BME280;10804;48.988;2.408;2023-06-24T04:04:02;101793.63;;;22.21;58.03
21290;BME280;10804;48.988;2.408;2023-06-24T04:06:29;101793.91;;;22.16;57.86
21290;BME280;10804;48.988;2.408;2023-06-24T04:08:57;101798.19;;;22.19;57.99
21290;BME280;10804;48.988;2.408;2023-06-24T04:11:24;101798.19;;;22.19;57.65
21290;BME280;10804;48.988;2.408;2023-06-24T04:13:53;101806.25;;;22.17;57.92
21290;BME280;10804;48.988;2.408;2023-06-24T04:16:20;101801.13;;;22.14;57.75
21290;BME280;10804;48.988;2.408;2023-06-24T04:18:48;101798.53;;;22.13;57.89
21290;BME280;10804;48.988;2.408;2023-06-24T04:21:15;101790.13;;;22.05;58.35
21290;BME280;10804;48.988;2.408;2023-06-24T04:23:42;101802.41;;;22.07;58.23
21290;BME280;10804;48.988;2.408;2023-06-24T04:26:10;101797.91;;;22.08;58.09
21290;BME280;10804;48.988;2.408;2023-06-24T04:28:37;101798.78;;;22.08;58.07
21290;BME280;10804;48.988;2.408;2023-06-24T04:31:07;101798.03;;;22.06;58.15
21290;BME280;10804;48.988;2.408;2023-06-24T04:33:34;101800.75;;;22.05;57.90
21290;BME280;10804;48.988;2.408;2023-06-24T04:36:03;101804.38;;;22.04;58.00
21290;BME280;10804;48.988;2.408;2023-06-24T04:38:31;101806.06;;;22.05;57.92
21290;BME280;10804;48.988;2.408;2023-06-24T04:41:00;101800.06;;;22.01;58.26
21290;BME280;10804;48.988;2.408;2023-06-24T04:43:28;101800.06;;;22.01;58.13
21290;BME280;10804;48.988;2.408;2023-06-24T04:45:55;101798.38;;;22.00;57.94
21290;BME280;10804;48.988;2.408;2023-06-24T04:48:24;101805.22;;;22.04;57.91
21290;BME280;10804;48.988;2.408;2023-06-24T04:50:51;101806.22;;;22.02;58.23
21290;BME280;10804;48.988;2.408;2023-06-24T04:53:20;101800.06;;;22.01;57.87
21290;BME280;10804;48.988;2.408;2023-06-24T04:55:48;101800.84;;;22.03;57.85
21290;BME280;10804;48.988;2.408;2023-06-24T04:58:15;101804.50;;;22.01;58.08
21290;BME280;10804;48.988;2.408;2023-06-24T05:00:43;101802.91;;;21.98;58.14
21290;BME280;10804;48.988;2.408;2023-06-24T05:03:10;101809.84;;;22.01;58.40
21290;BME280;10804;48.988;2.408;2023-06-24T05:05:39;101810.88;;;21.98;58.39
21290;BME280;10804;48.988;2.408;2023-06-24T05:08:06;101807.53;;;21.95;58.35
21290;BME280;10804;48.988;2.408;2023-06-24T05:10:33;101812.75;;;21.96;58.58
21290;BME280;10804;48.988;2.408;2023-06-24T05:13:01;101805.91;;;21.92;58.41
21290;BME280;10804;48.988;2.408;2023-06-24T05:15:28;101800.75;;;21.89;58.79
21290;BME280;10804;48.988;2.408;2023-06-24T05:17:56;101805.09;;;21.90;58.77
21290;BME280;10804;48.988;2.408;2023-06-24T05:20:23;101805.91;;;21.92;59.07
21290;BME280;10804;48.988;2.408;2023-06-24T05:22:52;101809.50;;;21.91;58.76
21290;BME280;10804;48.988;2.408;2023-06-24T05:25:19;101805.47;;;21.84;59.29
21290;BME280;10804;48.988;2.408;2023-06-24T05:27:47;101809.28;;;21.79;59.67
21290;BME280;10804;48.988;2.408;2023-06-24T05:30:14;101802.97;;;21.81;59.47
21290;BME280;10804;48.988;2.408;2023-06-24T05:32:41;101807.75;;;21.90;58.83
21290;BME280;10804;48.988;2.408;2023-06-24T05:35:09;101810.19;;;21.95;58.59
21290;BME280;10804;48.988;2.408;2023-06-24T05:37:36;101807.28;;;21.99;58.47
21290;BME280;10804;48.988;2.408;2023-06-24T05:40:06;101807.53;;;21.95;58.72
21290;BME280;10804;48.988;2.408;2023-06-24T05:42:35;101803.00;;;21.97;58.91
21290;BME280;10804;48.988;2.408;2023-06-24T05:45:03;101810.72;;;22.01;58.47
21290;BME280;10804;48.988;2.408;2023-06-24T05:47:31;101809.00;;;22.00;58.65
21290;BME280;10804;48.988;2.408;2023-06-24T05:49:58;101810.88;;;21.98;59.39
21290;BME280;10804;48.988;2.408;2023-06-24T05:52:25;101804.00;;;21.94;59.28
21290;BME280;10804;48.988;2.408;2023-06-24T05:54:54;101811.53;;;22.02;58.75
21290;BME280;10804;48.988;2.408;2023-06-24T05:57:26;101800.41;;;21.95;59.49
21290;BME280;10804;48.988;2.408;2023-06-24T05:59:53;101803.50;;;22.03;59.39
21290;BME280;10804;48.988;2.408;2023-06-24T06:02:21;101802.56;;;22.04;58.73
21290;BME280;10804;48.988;2.408;2023-06-24T06:04:48;101804.09;;;22.08;59.21
21290;BME280;10804;48.988;2.408;2023-06-24T06:07:15;101800.31;;;22.12;58.27
21290;BME280;10804;48.988;2.408;2023-06-24T06:09:42;101798.09;;;22.20;57.90
21290;BME280;10804;48.988;2.408;2023-06-24T06:12:10;101806.84;;;22.22;57.94
21290;BME280;10804;48.988;2.408;2023-06-24T06:14:39;101804.09;;;22.24;58.31
21290;BME280;10804;48.988;2.408;2023-06-24T06:17:06;101803.66;;;22.31;57.80
21290;BME280;10804;48.988;2.408;2023-06-24T06:19:33;101807.09;;;22.33;57.82
21290;BME280;10804;48.988;2.408;2023-06-24T06:22:01;101807.09;;;22.33;57.68
21290;BME280;10804;48.988;2.408;2023-06-24T06:24:28;101812.06;;;22.39;57.48
21290;BME280;10804;48.988;2.408;2023-06-24T06:26:57;101808.44;;;22.40;57.47
21290;BME280;10804;48.988;2.408;2023-06-24T06:29:24;101811.75;;;22.45;57.31
21290;BME280;10804;48.988;2.408;2023-06-24T06:31:53;101806.44;;;22.45;57.64
21290;BME280;10804;48.988;2.408;2023-06-24T06:34:21;101809.84;;;22.47;57.50
21290;BME280;10804;48.988;2.408;2023-06-24T06:36:48;101812.59;;;22.46;58.20
21290;BME280;10804;48.988;2.408;2023-06-24T06:39:16;101807.94;;;22.49;57.93
21290;BME280;10804;48.988;2.408;2023-06-24T06:41:43;101808.63;;;22.53;57.79
21290;BME280;10804;48.988;2.408;2023-06-24T06:44:15;101806.56;;;22.58;57.73
21290;BME280;10804;48.988;2.408;2023-06-24T06:46:43;101806.31;;;22.62;57.24
21290;BME280;10804;48.988;2.408;2023-06-24T06:49:11;101807.13;;;22.63;57.78
21290;BME280;10804;48.988;2.408;2023-06-24T06:51:38;101799.84;;;22.66;57.38
21290;BME280;10804;48.988;2.408;2023-06-24T06:54:06;101809.44;;;22.69;57.86
21290;BME280;10804;48.988;2.408;2023-06-24T06:56:33;101807.38;;;22.74;58.03
21290;BME280;10804;48.988;2.408;2023-06-24T06:59:00;101810.81;;;22.76;57.38
21290;BME280;10804;48.988;2.408;2023-06-24T07:01:28;101812.34;;;22.80;57.45
21290;BME280;10804;48.988;2.408;2023-06-24T07:03:55;101811.13;;;22.85;57.18
21290;BME280;10804;48.988;2.408;2023-06-24T07:06:24;101808.38;;;22.87;57.45
21290;BME280;10804;48.988;2.408;2023-06-24T07:08:51;101804.78;;;22.88;57.24
21290;BME280;10804;48.988;2.408;2023-06-24T07:11:18;101805.47;;;22.91;57.34
21290;BME280;10804;48.988;2.408;2023-06-24T07:13:46;101806.13;;;22.95;57.40
21290;BME280;10804;48.988;2.408;2023-06-24T07:16:17;101801.47;;;22.98;57.20
21290;BME280;10804;48.988;2.408;2023-06-24T07:18:44;101795.69;;;23.06;56.90
21290;BME280;10804;48.988;2.408;2023-06-24T07:21:11;101799.03;;;23.09;57.18
21290;BME280;10804;48.988;2.408;2023-06-24T07:23:40;101792.66;;;23.12;57.09
21290;BME280;10804;48.988;2.408;2023-06-24T07:26:07;101801.59;;;23.11;56.92
21290;BME280;10804;48.988;2.408;2023-06-24T07:28:35;101795.25;;;23.13;57.05
21290;BME280;10804;48.988;2.408;2023-06-24T07:31:02;101800.97;;;23.21;57.10
21290;BME280;10804;48.988;2.408;2023-06-24T07:33:30;101790.88;;;23.26;56.82
21290;BME280;10804;48.988;2.408;2023-06-24T07:35:57;101791.75;;;23.27;56.82
21290;BME280;10804;48.988;2.408;2023-06-24T07:38:24;101792.97;;;23.35;57.07
21290;BME280;10804;48.988;2.408;2023-06-24T07:40:53;101794.81;;;23.35;57.14
21290;BME280;10804;48.988;2.408;2023-06-24T07:43:20;101805.19;;;23.39;57.28
21290;BME280;10804;48.988;2.408;2023-06-24T07:45:47;101798.69;;;23.43;57.15
21290;BME280;10804;48.988;2.408;2023-06-24T07:48:15;101796.81;;;23.45;57.41
21290;BME280;10804;48.988;2.408;2023-06-24T07:50:42;101796.81;;;23.45;57.37
21290;BME280;10804;48.988;2.408;2023-06-24T07:53:09;101788.63;;;23.48;57.26
21290;BME280;10804;48.988;2.408;2023-06-24T07:55:37;101796.31;;;23.53;57.26
21290;BME280;10804;48.988;2.408;2023-06-24T07:58:06;101794.31;;;23.56;57.49
21290;BME280;10804;48.988;2.408;2023-06-24T08:00:33;101795.06;;;23.58;57.29
21290;BME280;10804;48.988;2.408;2023-06-24T08:03:00;101788.63;;;23.62;57.45
21290;BME280;10804;48.988;2.408;2023-06-24T08:05:28;101793.00;;;23.63;57.64
21290;BME280;10804;48.988;2.408;2023-06-24T08:07:55;101797.19;;;23.67;57.55
21290;BME280;10804;48.988;2.408;2023-06-24T08:10:23;101797.94;;;23.69;57.68
21290;BME280;10804;48.988;2.408;2023-06-24T08:12:50;101787.19;;;23.71;57.51
21290;BME280;10804;48.988;2.408;2023-06-24T08:15:19;101793.00;;;23.77;57.52
21290;BME280;10804;48.988;2.408;2023-06-24T08:17:50;101785.75;;;23.79;57.30
21290;BME280;10804;48.988;2.408;2023-06-24T08:20:18;101785.56;;;23.82;57.51
21290;BME280;10804;48.988;2.408;2023-06-24T08:22:45;101783.66;;;23.84;57.65
21290;BME280;10804;48.988;2.408;2023-06-24T08:25:12;101781.47;;;23.91;57.65
21290;BME280;10804;48.988;2.408;2023-06-24T08:27:40;101778.72;;;23.92;57.84
21290;BME280;10804;48.988;2.408;2023-06-24T08:30:08;101786.31;;;23.98;57.75
21290;BME280;10804;48.988;2.408;2023-06-24T08:32:37;101782.50;;;24.02;57.81
21290;BME280;10804;48.988;2.408;2023-06-24T08:35:05;101785.91;;;24.04;57.46
21290;BME280;10804;48.988;2.408;2023-06-24T08:37:33;101778.69;;;24.06;57.63
21290;BME280;10804;48.988;2.408;2023-06-24T08:40:01;101780.09;;;24.12;57.67
21290;BME280;10804;48.988;2.408;2023-06-24T08:42:30;101785.13;;;24.16;57.47
21290;BME280;10804;48.988;2.408;2023-06-24T08:44:58;101785.88;;;24.18;57.93
21290;BME280;10804;48.988;2.408;2023-06-24T08:47:27;101774.91;;;24.23;57.47
21290;BME280;10804;48.988;2.408;2023-06-24T08:50:01;101773.84;;;24.25;57.55
21290;BME280;10804;48.988;2.408;2023-06-24T08:52:32;101770.03;;;24.29;57.66
21290;BME280;10804;48.988;2.408;2023-06-24T08:55:02;101765.56;;;24.30;57.53
21290;BME280;10804;48.988;2.408;2023-06-24T08:57:31;101768.88;;;24.33;57.14
21290;BME280;10804;48.988;2.408;2023-06-24T08:59:58;101763.22;;;24.38;57.76
21290;BME280;10804;48.988;2.408;2023-06-24T09:02:27;101762.19;;;24.40;57.63
21290;BME280;10804;48.988;2.408;2023-06-24T09:04:54;101766.25;;;24.46;57.33
21290;BME280;10804;48.988;2.408;2023-06-24T09:07:29;101762.53;;;24.48;56.99
21290;BME280;10804;48.988;2.408;2023-06-24T09:09:56;101759.66;;;24.51;57.46
21290;BME280;10804;48.988;2.408;2023-06-24T09:12:25;101752.31;;;24.55;57.56
21290;BME280;10804;48.988;2.408;2023-06-24T09:14:52;101754.78;;;24.58;57.58
21290;BME280;10804;48.988;2.408;2023-06-24T09:17:19;101753.75;;;24.60;57.32
21290;BME280;10804;48.988;2.408;2023-06-24T09:19:48;101747.13;;;24.66;57.22
21290;BME280;10804;48.988;2.408;2023-06-24T09:22:15;101743.41;;;24.68;57.47
21290;BME280;10804;48.988;2.408;2023-06-24T09:24:46;101740.50;;;24.71;57.45
21290;BME280;10804;48.988;2.408;2023-06-24T09:27:14;101732.19;;;24.75;57.27
21290;BME280;10804;48.988;2.408;2023-06-24T09:29:42;101737.34;;;24.78;57.63
21290;BME280;10804;48.988;2.408;2023-06-24T09:32:10;101732.66;;;24.82;57.50
21290;BME280;10804;48.988;2.408;2023-06-24T09:34:37;101733.28;;;24.85;57.29
21290;BME280;10804;48.988;2.408;2023-06-24T09:37:05;101729.53;;;24.88;57.67
21290;BME280;10804;48.988;2.408;2023-06-24T09:39:36;101724.97;;;24.90;57.34
21290;BME280;10804;48.988;2.408;2023-06-24T09:42:05;101722.06;;;24.93;57.71
21290;BME280;10804;48.988;2.408;2023-06-24T09:44:34;101720.91;;;24.97;56.84
21290;BME280;10804;48.988;2.408;2023-06-24T09:47:01;101718.97;;;24.99;57.46
21290;BME280;10804;48.988;2.408;2023-06-24T09:49:29;101720.47;;;25.03;56.84
21290;BME280;10804;48.988;2.408;2023-06-24T09:51:57;101717.59;;;25.06;57.36
21290;BME280;10804;48.988;2.408;2023-06-24T09:54:26;101714.91;;;25.06;57.47
21290;BME280;10804;48.988;2.408;2023-06-24T09:56:58;101712.75;;;25.11;57.66
21290;BME280;10804;48.988;2.408;2023-06-24T09:59:28;101709.16;;;25.12;57.48
21290;BME280;10804;48.988;2.408;2023-06-24T10:01:57;101701.66;;;25.17;57.47
21290;BME280;10804;48.988;2.408;2023-06-24T10:04:26;101699.63;;;25.20;57.62
21290;BME280;10804;48.988;2.408;2023-06-24T10:06:55;101694.00;;;25.25;57.67
21290;BME280;10804;48.988;2.408;2023-06-24T10:09:22;101685.78;;;25.28;57.66
21290;BME280;10804;48.988;2.408;2023-06-24T10:11:50;101683.75;;;25.31;57.60
21290;BME280;10804;48.988;2.408;2023-06-24T10:14:17;101682.66;;;25.34;57.48
21290;BME280;10804;48.988;2.408;2023-06-24T10:16:46;101677.09;;;25.37;57.60
21290;BME280;10804;48.988;2.408;2023-06-24T10:19:19;101678.56;;;25.41;57.63
21290;BME280;10804;48.988;2.408;2023-06-24T10:21:50;101673.03;;;25.44;57.71
21290;BME280;10804;48.988;2.408;2023-06-24T10:24:30;101676.44;;;25.46;57.66
21290;BME280;10804;48.988;2.408;2023-06-24T10:27:02;101670.66;;;25.52;57.84
21290;BME280;10804;48.988;2.408;2023-06-24T10:29:31;101666.91;;;25.54;57.69
21290;BME280;10804;48.988;2.408;2023-06-24T10:32:03;101664.00;;;25.57;57.55
21290;BME280;10804;48.988;2.408;2023-06-24T10:34:39;101661.22;;;25.59;57.35
21290;BME280;10804;48.988;2.408;2023-06-24T10:37:10;101657.25;;;25.64;57.48
21290;BME280;10804;48.988;2.408;2023-06-24T10:39:39;101646.44;;;25.66;57.14
21290;BME280;10804;48.988;2.408;2023-06-24T10:42:31;101646.84;;;25.72;57.15
21290;BME280;10804;48.988;2.408;2023-06-24T10:45:01;101646.50;;;25.77;57.55
21290;BME280;10804;48.988;2.408;2023-06-24T10:47:31;101649.06;;;25.78;57.39
21290;BME280;10804;48.988;2.408;2023-06-24T10:49:58;101648.72;;;25.83;57.35
21290;BME280;10804;48.988;2.408;2023-06-24T10:52:26;101650.19;;;25.87;57.41
21290;BME280;10804;48.988;2.408;2023-06-24T10:54:53;101634.94;;;25.89;57.24
21290;BME280;10804;48.988;2.408;2023-06-24T10:57:22;101636.63;;;25.90;57.06
21290;BME280;10804;48.988;2.408;2023-06-24T10:59:51;101634.59;;;25.93;57.15
21290;BME280;10804;48.988;2.408;2023-06-24T11:02:19;101629.88;;;25.97;57.42
21290;BME280;10804;48.988;2.408;2023-06-24T11:04:49;101628.66;;;26.01;57.34
21290;BME280;10804;48.988;2.408;2023-06-24T11:07:18;101630.88;;;26.07;57.22
21290;BME280;10804;48.988;2.408;2023-06-24T11:09:49;101624.34;;;26.11;57.25
21290;BME280;10804;48.988;2.408;2023-06-24T11:12:17;101616.44;;;26.09;57.15
21290;BME280;10804;48.988;2.408;2023-06-24T11:14:45;101621.16;;;26.17;56.86
21290;BME280;10804;48.988;2.408;2023-06-24T11:17:12;101619.38;;;26.17;57.47
21290;BME280;10804;48.988;2.408;2023-06-24T11:19:40;101615.38;;;26.23;57.31
21290;BME280;10804;48.988;2.408;2023-06-24T11:22:11;101618.56;;;26.28;57.23
21290;BME280;10804;48.988;2.408;2023-06-24T11:24:38;101612.94;;;26.31;57.36
21290;BME280;10804;48.988;2.408;2023-06-24T11:27:07;101614.44;;;26.35;57.41
21290;BME280;10804;48.988;2.408;2023-06-24T11:29:35;101604.34;;;26.38;57.02
21290;BME280;10804;48.988;2.408;2023-06-24T11:32:03;101604.81;;;26.43;57.28
21290;BME280;10804;48.988;2.408;2023-06-24T11:34:34;101594.00;;;26.45;56.85
21290;BME280;10804;48.988;2.408;2023-06-24T11:37:11;101600.63;;;26.52;57.19
21290;BME280;10804;48.988;2.408;2023-06-24T11:39:39;101593.31;;;26.54;57.38
21290;BME280;10804;48.988;2.408;2023-06-24T11:42:07;101585.78;;;26.59;57.24
21290;BME280;10804;48.988;2.408;2023-06-24T11:44:35;101581.88;;;26.63;57.29
21290;BME280;10804;48.988;2.408;2023-06-24T11:47:04;101583.47;;;26.65;57.09
21290;BME280;10804;48.988;2.408;2023-06-24T11:49:32;101578.63;;;26.70;56.49
21290;BME280;10804;48.988;2.408;2023-06-24T11:51:59;101581.06;;;26.73;56.98
21290;BME280;10804;48.988;2.408;2023-06-24T11:54:28;101579.84;;;26.77;57.29
21290;BME280;10804;48.988;2.408;2023-06-24T11:57:07;101564.41;;;26.81;56.96
21290;BME280;10804;48.988;2.408;2023-06-24T11:59:34;101568.50;;;26.85;56.94
21290;BME280;10804;48.988;2.408;2023-06-24T12:02:02;101568.28;;;26.88;56.99
21290;BME280;10804;48.988;2.408;2023-06-24T12:04:31;101558.03;;;26.93;56.80
21290;BME280;10804;48.988;2.408;2023-06-24T12:06:58;101564.88;;;26.97;56.81
21290;BME280;10804;48.988;2.408;2023-06-24T12:09:28;101555.59;;;27.01;56.97
21290;BME280;10804;48.988;2.408;2023-06-24T12:11:55;101549.03;;;27.05;56.96
21290;BME280;10804;48.988;2.408;2023-06-24T12:14:22;101553.16;;;27.09;56.98
21290;BME280;10804;48.988;2.408;2023-06-24T12:16:50;101543.91;;;27.13;56.80
21290;BME280;10804;48.988;2.408;2023-06-24T12:19:17;101541.84;;;27.16;57.00
21290;BME280;10804;48.988;2.408;2023-06-24T12:21:46;101538.81;;;27.21;57.07
21290;BME280;10804;48.988;2.408;2023-06-24T12:24:13;101536.72;;;27.24;56.57
21290;BME280;10804;48.988;2.408;2023-06-24T12:26:42;101533.66;;;27.29;56.53
21290;BME280;10804;48.988;2.408;2023-06-24T12:29:09;101533.41;;;27.32;56.90
21290;BME280;10804;48.988;2.408;2023-06-24T12:31:36;101523.28;;;27.35;56.73
21290;BME280;10804;48.988;2.408;2023-06-24T12:34:04;101525.47;;;27.41;56.28
21290;BME280;10804;48.988;2.408;2023-06-24T12:36:31;101525.06;;;27.46;56.59
21290;BME280;10804;48.988;2.408;2023-06-24T12:38:59;101526.53;;;27.50;56.34
21290;BME280;10804;48.988;2.408;2023-06-24T12:41:26;101515.44;;;27.54;56.61
21290;BME280;10804;48.988;2.408;2023-06-24T12:43:55;101514.16;;;27.58;56.24
21290;BME280;10804;48.988;2.408;2023-06-24T12:46:22;101518.19;;;27.64;56.29
21290;BME280;10804;48.988;2.408;2023-06-24T12:48:50;101511.56;;;27.68;56.31
21290;BME280;10804;48.988;2.408;2023-06-24T12:51:17;101519.03;;;27.75;55.82
21290;BME280;10804;48.988;2.408;2023-06-24T12:53:44;101513.00;;;27.83;56.10
21290;BME280;10804;48.988;2.408;2023-06-24T12:56:12;101509.09;;;27.87;56.17
21290;BME280;10804;48.988;2.408;2023-06-24T12:58:39;101508.81;;;27.90;55.59
21290;BME280;10804;48.988;2.408;2023-06-24T13:01:08;101500.38;;;27.94;55.68
21290;BME280;10804;48.988;2.408;2023-06-24T13:03:35;101499.00;;;28.00;55.82
21290;BME280;10804;48.988;2.408;2023-06-24T13:06:03;101497.63;;;28.05;55.40